Time;durP1;ratioP1;P1;durP2;ratioP2;P2;SDS_P1;SDS_P2;PMS_P1;PMS_P2;Temp;Humidity;BMP_temperature;BMP_pressure;BME280_temperature;BME280_humidity;BME280_pressure;Samples;Min_cycle;Max_cycle;Signal;HPM_P1;HPM_P2
2023/07/13 00:00:57;;;;;;;183.38;170.65;;;;;;;22.87;100.00;100962.91;5042827;28;20436;-79
2023/07/13 00:03:24;;;;;;;153.25;141.60;;;;;;;22.43;100.00;100976.47;5049250;28;20056;-79
2023/07/13 00:06:00;;;;;;;148.70;137.80;;;;;;;22.75;100.00;100957.84;5048692;28;20104;-78
2023/07/13 00:08:27;;;;;;;137.98;127.63;;;;;;;22.99;100.00;100968.81;5046824;28;20040;-81
2023/07/13 00:10:54;;;;;;;56.95;51.42;;;;;;;22.77;100.00;100954.88;5041769;28;20501;-80
2023/07/13 00:13:21;;;;;;;174.57;161.70;;;;;;;22.78;100.00;100968.13;5043570;28;20067;-81
2023/07/13 00:15:49;;;;;;;178.20;164.98;;;;;;;22.41;100.00;100969.41;5045430;28;20044;-81
2023/07/13 00:18:16;;;;;;;170.80;158.23;;;;;;;22.73;100.00;100965.47;5050474;28;20489;-80
2023/07/13 00:20:43;;;;;;;153.93;142.88;;;;;;;22.83;100.00;100962.66;5045071;28;20128;-81
2023/07/13 00:23:12;;;;;;;147.25;136.73;;;;;;;22.89;100.00;100954.53;5047267;28;20052;-81
2023/07/13 00:25:38;;;;;;;154.48;143.57;;;;;;;22.70;100.00;100970.63;5044453;28;20436;-81
2023/07/13 00:28:05;;;;;;;129.85;120.50;;;;;;;22.63;100.00;100954.69;5045253;28;20045;-81
2023/07/13 00:30:32;;;;;;;54.22;48.38;;;;;;;22.61;100.00;100962.28;5049547;28;20444;-81
2023/07/13 00:33:01;;;;;;;66.95;60.40;;;;;;;22.68;100.00;100954.66;5049511;28;20052;-81
2023/07/13 00:35:28;;;;;;;60.67;54.72;;;;;;;22.76;100.00;100958.69;5049729;28;20501;-81
2023/07/13 00:37:56;;;;;;;64.00;57.70;;;;;;;22.87;100.00;100954.78;5042393;28;20071;-81
2023/07/13 00:40:24;;;;;;;57.08;51.47;;;;;;;22.64;100.00;100946.28;5040754;28;20114;-81
2023/07/13 00:42:53;;;;;;;57.95;52.42;;;;;;;22.61;100.00;100946.84;5042623;28;20049;-81
2023/07/13 00:45:57;;;;;;;61.38;55.70;;;;;;;22.84;100.00;100949.94;5042398;28;20044;-83
2023/07/13 00:48:27;;;;;;;56.30;50.88;;;;;;;22.86;100.00;100953.19;5044011;28;20051;-81
2023/07/13 00:50:58;;;;;;;58.83;52.72;;;;;;;23.01;100.00;100949.56;5041309;28;20045;-81
2023/07/13 00:53:27;;;;;;;57.30;51.35;;;;;;;22.42;100.00;100945.88;5045759;28;20037;-81
2023/07/13 00:55:57;;;;;;;57.03;51.25;;;;;;;22.49;100.00;100948.28;5033744;28;20041;-81
2023/07/13 00:58:25;;;;;;;56.25;50.95;;;;;;;22.40;100.00;100950.78;5048390;28;20053;-81
2023/07/13 01:00:52;;;;;;;62.08;56.08;;;;;;;22.56;100.00;100946.88;5049595;28;20049;-80
2023/07/13 01:03:20;;;;;;;59.85;53.95;;;;;;;22.63;100.00;100947.41;5048203;28;20049;-81
2023/07/13 01:05:49;;;;;;;61.83;56.13;;;;;;;22.68;100.00;100945.72;5040436;28;20451;-83
2023/07/13 01:08:17;;;;;;;64.82;59.10;;;;;;;22.48;100.00;100952.91;5047355;28;20436;-82
2023/07/13 01:10:52;;;;;;;61.17;55.28;;;;;;;22.58;100.00;100943.91;5043089;28;20060;-83
2023/07/13 01:13:21;;;;;;;59.80;53.53;;;;;;;22.62;100.00;100943.03;5049152;28;20048;-83
2023/07/13 01:15:50;;;;;;;58.40;52.45;;;;;;;22.38;100.00;100944.81;5040217;28;20056;-80
2023/07/13 01:18:20;;;;;;;59.13;53.03;;;;;;;22.43;100.00;100944.81;5045167;28;20053;-80
2023/07/13 01:20:52;;;;;;;59.88;53.97;;;;;;;22.19;100.00;100944.66;5041571;28;20420;-81
2023/07/13 01:23:19;;;;;;;57.45;51.88;;;;;;;22.22;100.00;100949.50;5042829;28;20806;-83
2023/07/13 01:25:46;;;;;;;58.13;51.95;;;;;;;22.49;100.00;100943.69;5043776;28;20152;-83
2023/07/13 01:28:13;;;;;;;59.28;53.05;;;;;;;22.28;100.00;100953.81;5047162;28;20499;-81
2023/07/13 01:30:45;;;;;;;59.25;53.10;;;;;;;22.06;100.00;100940.63;5041423;28;20057;-81
2023/07/13 01:33:13;;;;;;;59.65;53.38;;;;;;;22.11;100.00;100950.59;5043757;28;20051;-80
2023/07/13 01:35:41;;;;;;;60.67;54.47;;;;;;;22.21;100.00;100950.63;5048365;28;20533;-83
2023/07/13 01:38:10;;;;;;;59.65;53.50;;;;;;;22.29;100.00;100950.00;5044344;28;20405;-81
2023/07/13 01:40:38;;;;;;;59.58;53.30;;;;;;;22.29;100.00;100939.19;5046096;28;20053;-81
2023/07/13 01:43:06;;;;;;;59.92;54.13;;;;;;;22.39;100.00;100944.56;5047874;28;20049;-81
2023/07/13 01:45:33;;;;;;;61.50;55.47;;;;;;;21.91;100.00;100946.91;5045819;28;20044;-81
2023/07/13 01:48:01;;;;;;;64.40;58.22;;;;;;;21.93;100.00;100943.91;5048524;28;20045;-80
2023/07/13 01:50:28;;;;;;;67.85;61.10;;;;;;;21.93;100.00;100930.41;5048218;28;20049;-80
2023/07/13 01:52:55;;;;;;;65.18;58.70;;;;;;;22.15;100.00;100938.97;5046194;28;20049;-81
2023/07/13 01:55:23;;;;;;;68.03;61.63;;;;;;;22.26;100.00;100934.34;5049452;28;20439;-81
2023/07/13 01:57:51;;;;;;;61.90;55.42;;;;;;;21.85;100.00;100931.78;5050713;28;20051;-83
2023/07/13 02:00:18;;;;;;;65.13;58.53;;;;;;;21.76;100.00;100951.56;5049932;28;20042;-80
2023/07/13 02:02:45;;;;;;;65.93;59.05;;;;;;;21.91;100.00;100959.63;5052017;28;20305;-80
2023/07/13 02:05:12;;;;;;;71.78;65.15;;;;;;;21.82;100.00;100956.69;5052173;28;20425;-80
2023/07/13 02:07:39;;;;;;;70.65;63.83;;;;;;;21.90;100.00;100955.28;5053222;28;20432;-81
2023/07/13 02:10:07;;;;;;;71.45;64.47;;;;;;;21.89;100.00;100956.38;5049726;28;20528;-81
2023/07/13 02:12:35;;;;;;;77.35;70.53;;;;;;;21.91;100.00;100955.03;5051268;28;20053;-80
2023/07/13 02:15:02;;;;;;;69.40;62.63;;;;;;;21.16;100.00;100948.66;5048645;28;20076;-80
2023/07/13 02:17:29;;;;;;;75.53;68.45;;;;;;;21.32;100.00;100958.34;5043498;28;20060;-81
2023/07/13 02:19:56;;;;;;;74.07;67.07;;;;;;;21.56;100.00;100963.22;5047724;28;20507;-80
2023/07/13 02:22:23;;;;;;;63.25;56.50;;;;;;;21.71;100.00;100955.88;5050114;28;20068;-80
2023/07/13 02:24:50;;;;;;;71.07;64.38;;;;;;;21.90;100.00;100953.38;5043369;28;20041;-80
2023/07/13 02:27:17;;;;;;;73.40;66.53;;;;;;;21.77;100.00;100959.38;5047474;28;20436;-80
2023/07/13 02:29:45;;;;;;;73.70;66.40;;;;;;;21.76;100.00;100952.38;5051239;28;20037;-80
2023/07/13 02:32:12;;;;;;;71.68;64.70;;;;;;;21.37;100.00;100968.41;5048116;28;20040;-80
2023/07/13 02:34:39;;;;;;;72.55;65.82;;;;;;;21.56;100.00;100971.34;5043929;28;20448;-80
2023/07/13 02:37:06;;;;;;;78.95;71.78;;;;;;;21.60;100.00;100954.28;5047023;28;20053;-80
2023/07/13 02:39:33;;;;;;;78.22;70.93;;;;;;;21.53;100.00;100966.47;5050210;28;20140;-81
2023/07/13 02:42:00;;;;;;;65.40;59.20;;;;;;;21.63;100.00;100966.44;5050552;28;20110;-83
2023/07/13 02:44:28;;;;;;;73.53;66.55;;;;;;;21.41;100.00;100959.47;5047739;28;20494;-83
2023/07/13 02:46:56;;;;;;;79.22;72.05;;;;;;;21.46;100.00;100972.16;5045644;28;20053;-83
2023/07/13 02:49:23;;;;;;;65.78;59.20;;;;;;;21.24;100.00;100954.31;5049906;28;20053;-83
2023/07/13 02:51:50;;;;;;;74.93;67.82;;;;;;;21.26;100.00;100952.16;5049754;28;20037;-83
2023/07/13 02:54:16;;;;;;;61.45;55.42;;;;;;;21.27;100.00;100958.34;5039427;28;20037;-83
2023/07/13 02:56:44;;;;;;;64.07;57.75;;;;;;;21.26;100.00;100964.84;5048289;28;20075;-81
2023/07/13 02:59:12;;;;;;;61.72;55.17;;;;;;;21.21;100.00;100960.28;5048825;28;20132;-83
2023/07/13 03:01:38;;;;;;;54.03;48.40;;;;;;;21.34;100.00;100958.09;5045554;28;20408;-82
2023/07/13 03:04:07;;;;;;;55.22;49.58;;;;;;;21.26;100.00;100965.66;5043865;28;20334;-80
2023/07/13 03:06:34;;;;;;;56.63;50.90;;;;;;;21.25;100.00;100960.53;5044868;28;20041;-82
2023/07/13 03:09:02;;;;;;;57.55;52.10;;;;;;;21.16;100.00;100956.75;5048259;28;20041;-81
2023/07/13 03:11:28;;;;;;;101.72;94.22;;;;;;;21.10;100.00;100957.84;5046925;28;20049;-80
2023/07/13 03:13:56;;;;;;;116.68;108.15;;;;;;;20.95;100.00;100958.66;5050626;28;20064;-82
2023/07/13 03:16:23;;;;;;;91.78;85.00;;;;;;;21.26;100.00;100959.44;5045324;28;20432;-80
2023/07/13 03:18:50;;;;;;;86.95;80.10;;;;;;;21.05;100.00;100948.63;5050422;28;20052;-80
2023/07/13 03:21:19;;;;;;;95.50;88.13;;;;;;;21.07;100.00;100959.19;5047300;28;20048;-80
2023/07/13 03:23:48;;;;;;;90.03;82.93;;;;;;;21.46;100.00;100951.34;5051424;28;20398;-82
2023/07/13 03:26:18;;;;;;;84.28;77.85;;;;;;;21.33;100.00;100959.16;5050874;28;20048;-82
2023/07/13 03:28:45;;;;;;;97.28;89.68;;;;;;;21.32;100.00;100954.84;5037525;28;20053;-80
2023/07/13 03:31:14;;;;;;;102.82;95.55;;;;;;;21.60;100.00;100948.06;5049256;28;20041;-83
2023/07/13 03:33:41;;;;;;;94.05;87.20;;;;;;;21.52;100.00;100948.66;5046892;28;20049;-80
2023/07/13 03:36:18;;;;;;;85.28;78.75;;;;;;;21.79;100.00;100959.94;5045125;28;20052;-80
2023/07/13 03:38:47;;;;;;;95.40;88.28;;;;;;;21.90;100.00;100955.28;5050618;28;20530;-83
2023/07/13 03:41:15;;;;;;;59.90;54.38;;;;;;;21.79;100.00;100954.53;5047861;28;20072;-82
2023/07/13 03:43:42;;;;;;;61.38;55.55;;;;;;;21.99;100.00;100948.22;5046367;28;20041;-83
2023/07/13 03:46:08;;;;;;;90.75;84.28;;;;;;;22.17;100.00;100954.94;5047052;28;20040;-83
2023/07/13 03:48:35;;;;;;;85.95;79.13;;;;;;;22.14;100.00;100952.75;5050684;28;20548;-82
2023/07/13 03:51:03;;;;;;;93.90;87.35;;;;;;;22.19;100.00;100950.06;5050523;28;20048;-82
2023/07/13 03:53:29;;;;;;;100.75;93.45;;;;;;;22.40;100.00;100948.06;5047759;28;20053;-82
2023/07/13 03:55:58;;;;;;;92.60;85.78;;;;;;;22.40;100.00;100954.28;5049973;28;20045;-82
2023/07/13 03:58:28;;;;;;;92.57;86.07;;;;;;;22.45;100.00;100949.91;5046432;28;20501;-83
2023/07/13 04:00:57;;;;;;;88.45;81.95;;;;;;;22.56;100.00;100955.00;5046009;28;20120;-83
2023/07/13 04:03:24;;;;;;;79.05;72.93;;;;;;;22.66;100.00;100947.91;5045815;28;20115;-80
2023/07/13 04:05:51;;;;;;;49.13;44.47;;;;;;;22.75;100.00;100955.13;5044064;28;20041;-80
2023/07/13 04:08:18;;;;;;;49.35;44.42;;;;;;;22.83;100.00;100954.53;5046377;28;20044;-80
2023/07/13 04:10:44;;;;;;;74.80;69.03;;;;;;;22.86;100.00;100950.47;5046534;28;20048;-80
2023/07/13 04:13:13;;;;;;;77.00;71.40;;;;;;;22.93;100.00;100953.66;5048387;28;20540;-80
2023/07/13 04:15:40;;;;;;;83.22;77.43;;;;;;;23.04;100.00;100957.94;5046390;28;20489;-80
2023/07/13 04:18:07;;;;;;;81.63;76.05;;;;;;;23.19;100.00;100954.28;5045852;28;20487;-80
2023/07/13 04:20:34;;;;;;;71.72;66.10;;;;;;;23.26;100.00;100960.19;5036275;28;20045;-83
2023/07/13 04:23:01;;;;;;;76.70;70.95;;;;;;;23.45;100.00;100964.88;5046626;28;20053;-82
2023/07/13 04:25:28;;;;;;;67.43;62.05;;;;;;;23.51;100.00;100964.56;5049678;28;20044;-82
2023/07/13 04:27:55;;;;;;;71.00;65.88;;;;;;;23.58;100.00;100958.81;5048519;28;20049;-82
2023/07/13 04:30:23;;;;;;;73.35;68.43;;;;;;;23.69;100.00;100964.91;5035104;28;20046;-82
2023/07/13 04:32:53;;;;;;;52.90;48.70;;;;;;;23.83;100.00;100968.59;5043474;28;20107;-82
2023/07/13 04:35:21;;;;;;;49.85;45.55;;;;;;;24.02;100.00;100970.53;5043469;28;20045;-82
2023/07/13 04:37:49;;;;;;;49.55;45.55;;;;;;;23.94;100.00;100967.38;5045811;28;20450;-82
2023/07/13 04:40:17;;;;;;;48.80;44.75;;;;;;;24.14;100.00;100960.88;5041122;28;20103;-80
2023/07/13 04:42:44;;;;;;;46.42;42.42;;;;;;;24.22;100.00;100971.09;5044634;28;20056;-83
2023/07/13 04:45:12;;;;;;;45.88;41.92;;;;;;;24.42;100.00;100961.09;5042118;28;20053;-83
2023/07/13 04:47:40;;;;;;;43.65;39.85;;;;;;;24.58;100.00;100980.69;5044317;28;20502;-83
2023/07/13 04:50:08;;;;;;;46.00;42.00;;;;;;;24.52;100.00;100982.69;5045976;28;20052;-83
2023/07/13 04:52:35;;;;;;;46.30;42.50;;;;;;;24.45;100.00;100977.63;5043853;28;20048;-83
2023/07/13 04:55:02;;;;;;;43.33;39.20;;;;;;;24.58;100.00;100972.56;5040062;28;20053;-83
2023/07/13 04:57:29;;;;;;;40.10;36.70;;;;;;;24.78;100.00;100982.28;5042042;28;20057;-83
2023/07/13 04:59:56;;;;;;;42.47;38.67;;;;;;;24.82;100.00;100976.00;5044869;28;20041;-83
2023/07/13 05:02:23;;;;;;;42.17;37.95;;;;;;;24.96;100.00;100969.78;5043011;28;20049;-82
2023/07/13 05:04:51;;;;;;;59.75;55.45;;;;;;;25.22;100.00;100968.31;5041357;28;20048;-82
2023/07/13 05:07:18;;;;;;;54.28;50.35;;;;;;;25.18;100.00;100964.56;5045614;28;20171;-82
2023/07/13 05:09:45;;;;;;;66.95;62.08;;;;;;;25.49;100.00;100970.28;5039191;28;20056;-83
2023/07/13 05:12:12;;;;;;;52.05;47.88;;;;;;;25.39;100.00;100969.63;5043795;28;20433;-83
2023/07/13 05:14:39;;;;;;;51.95;47.80;;;;;;;25.57;100.00;100971.50;5040953;28;20048;-80
2023/07/13 05:17:06;;;;;;;51.78;47.15;;;;;;;25.86;100.00;100973.16;5041961;28;20053;-80
2023/07/13 05:19:33;;;;;;;53.97;49.72;;;;;;;25.96;100.00;100975.66;5047802;28;20511;-80
2023/07/13 05:22:02;;;;;;;52.20;47.85;;;;;;;25.92;100.00;100971.94;5041974;28;20048;-80
2023/07/13 05:24:30;;;;;;;49.17;44.75;;;;;;;25.97;100.00;100980.81;5048643;28;20497;-80
2023/07/13 05:26:57;;;;;;;37.85;34.08;;;;;;;26.04;100.00;100974.94;5047485;28;20475;-80
2023/07/13 05:29:24;;;;;;;43.85;39.83;;;;;;;26.18;100.00;100978.47;5037456;28;20493;-83
2023/07/13 05:31:51;;;;;;;43.53;39.63;;;;;;;26.33;100.00;100982.78;5045137;28;20045;-82
2023/07/13 05:34:18;;;;;;;38.45;34.92;;;;;;;26.54;100.00;100976.91;5041407;28;20056;-83
2023/07/13 05:36:45;;;;;;;35.55;32.03;;;;;;;26.73;100.00;100975.63;5044356;28;20041;-83
2023/07/13 05:39:13;;;;;;;35.90;32.38;;;;;;;26.76;100.00;100973.41;5043878;28;20041;-81
2023/07/13 05:41:40;;;;;;;36.00;32.33;;;;;;;26.98;100.00;100967.97;5042312;28;20428;-81
2023/07/13 05:44:07;;;;;;;35.55;32.05;;;;;;;27.17;100.00;100971.34;5042372;28;20075;-81
2023/07/13 05:46:34;;;;;;;36.22;32.63;;;;;;;27.31;100.00;100967.72;5041764;28;20076;-81
2023/07/13 05:49:02;;;;;;;35.20;31.65;;;;;;;27.44;100.00;100969.53;5045539;28;20056;-81
2023/07/13 05:51:30;;;;;;;35.30;31.60;;;;;;;27.60;100.00;100969.97;5045655;28;20072;-81
2023/07/13 05:53:57;;;;;;;35.70;32.25;;;;;;;27.78;100.00;100970.84;5041936;28;20490;-81
2023/07/13 05:56:26;;;;;;;33.95;30.65;;;;;;;27.74;100.00;100964.38;5041941;28;20522;-81
2023/07/13 05:58:53;;;;;;;35.10;31.80;;;;;;;28.06;100.00;100974.94;5041706;28;21456;-81
2023/07/13 06:01:22;;;;;;;36.65;33.22;;;;;;;28.18;100.00;100974.31;5045441;28;20428;-81
2023/07/13 06:03:49;;;;;;;37.28;33.95;;;;;;;28.27;100.00;100975.16;5044916;28;20060;-81
2023/07/13 06:06:16;;;;;;;35.90;32.83;;;;;;;28.25;100.00;100968.38;5041168;28;20045;-81
2023/07/13 06:08:43;;;;;;;36.60;32.90;;;;;;;28.34;100.00;100974.66;5042019;28;20052;-81
2023/07/13 06:11:15;;;;;;;35.05;31.88;;;;;;;28.49;100.00;100976.97;5038669;28;20049;-82
2023/07/13 06:13:43;;;;;;;35.13;31.80;;;;;;;28.60;100.00;100982.13;5034540;28;20044;-81
2023/07/13 06:16:10;;;;;;;35.17;31.90;;;;;;;28.90;100.00;100988.53;5044525;28;20473;-81
2023/07/13 06:18:38;;;;;;;33.08;30.25;;;;;;;28.88;100.00;100979.84;5040312;28;20061;-81
2023/07/13 06:21:09;;;;;;;34.90;31.80;;;;;;;29.19;100.00;100985.94;5042167;28;20074;-81
2023/07/13 06:23:37;;;;;;;34.72;31.33;;;;;;;29.13;100.00;100975.50;5037699;28;20049;-81
2023/07/13 06:26:04;;;;;;;31.17;28.38;;;;;;;28.98;100.00;100980.31;5040582;28;20053;-81
2023/07/13 06:28:32;;;;;;;29.52;26.98;;;;;;;28.90;100.00;100977.59;5041266;28;20052;-81
2023/07/13 06:31:01;;;;;;;30.77;27.98;;;;;;;29.61;100.00;100975.22;5036402;28;20045;-79
2023/07/13 06:33:28;;;;;;;32.20;28.95;;;;;;;29.93;100.00;100981.19;5037822;28;20049;-79
2023/07/13 06:35:55;;;;;;;27.83;24.95;;;;;;;29.53;100.00;100975.22;5043557;28;20049;-79
2023/07/13 06:38:23;;;;;;;27.85;25.25;;;;;;;30.02;100.00;100981.16;5051173;28;20409;-79
2023/07/13 06:40:49;;;;;;;28.38;25.65;;;;;;;29.41;100.00;100975.91;5052149;28;20049;-79
2023/07/13 06:43:16;;;;;;;32.22;29.65;;;;;;;28.86;100.00;100984.84;5052569;28;20120;-79
2023/07/13 06:45:48;;;;;;;33.65;30.50;;;;;;;29.71;100.00;100982.25;5052986;28;20483;-78
2023/07/13 06:48:17;;;;;;;31.67;28.98;;;;;;;30.23;100.00;100981.19;5051313;28;20124;-78
2023/07/13 06:50:44;;;;;;;49.72;45.00;;;;;;;29.47;100.00;100973.78;5051932;28;20538;-79
2023/07/13 06:53:12;;;;;;;73.95;66.95;;;;;;;29.94;100.00;100968.31;5051962;28;20056;-79
2023/07/13 06:55:39;;;;;;;72.88;66.40;;;;;;;29.92;100.00;100967.81;5051909;28;20055;-79
2023/07/13 06:58:06;;;;;;;69.57;63.42;;;;;;;29.67;100.00;100965.69;5051439;28;20045;-81
2023/07/13 07:00:34;;;;;;;67.93;61.78;;;;;;;30.69;100.00;100971.19;5051215;28;20048;-79
2023/07/13 07:03:01;;;;;;;70.57;64.60;;;;;;;30.91;100.00;100976.31;5050451;28;20057;-79
2023/07/13 07:05:29;;;;;;;71.68;65.78;;;;;;;31.06;100.00;100968.59;5050715;28;20053;-78
2023/07/13 07:07:56;;;;;;;68.40;62.80;;;;;;;31.18;100.00;100963.94;5049819;28;20041;-79
2023/07/13 07:10:23;;;;;;;69.97;64.07;;;;;;;31.36;100.00;100972.81;5047919;28;20429;-79
2023/07/13 07:12:50;;;;;;;73.78;67.70;;;;;;;31.02;100.00;100958.31;5050152;28;20060;-78
2023/07/13 07:15:18;;;;;;;72.60;66.63;;;;;;;30.53;100.00;100963.56;5046506;28;21317;-79
2023/07/13 07:17:46;;;;;;;62.65;57.50;;;;;;;31.31;100.00;100969.44;5047079;28;20050;-79
2023/07/13 07:20:13;;;;;;;62.45;56.95;;;;;;;30.60;100.00;100970.47;5044832;28;20045;-79
2023/07/13 07:22:41;;;;;;;74.28;68.15;;;;;;;30.57;100.00;100971.94;5047017;28;20048;-79
2023/07/13 07:25:08;;;;;;;72.00;65.88;;;;;;;30.44;100.00;100960.09;5046337;28;20045;-79
2023/07/13 07:27:35;;;;;;;68.40;62.42;;;;;;;30.73;100.00;100961.94;5045993;28;20528;-79
2023/07/13 07:30:02;;;;;;;74.05;67.60;;;;;;;31.29;100.00;100958.84;5044976;28;20046;-78
2023/07/13 07:32:31;;;;;;;74.30;67.70;;;;;;;31.94;100.00;100951.56;5047450;28;20052;-79
2023/07/13 07:34:58;;;;;;;77.88;70.90;;;;;;;30.76;100.00;100957.72;5048509;28;20053;-79
2023/07/13 07:37:25;;;;;;;80.32;73.68;;;;;;;30.83;100.00;100954.47;5047072;28;20051;-79
2023/07/13 07:39:54;;;;;;;75.53;68.35;;;;;;;29.99;100.00;100949.75;5044893;28;20045;-78
2023/07/13 07:42:21;;;;;;;77.47;70.70;;;;;;;30.64;100.00;100952.19;5044278;28;20053;-79
2023/07/13 07:44:48;;;;;;;76.18;70.10;;;;;;;29.87;100.00;100946.94;5045297;28;20057;-79
2023/07/13 07:47:15;;;;;;;68.32;62.42;;;;;;;30.27;100.00;100954.75;5043872;28;20045;-79
2023/07/13 07:49:42;;;;;;;69.28;63.25;;;;;;;30.21;100.00;100956.09;5048828;28;20505;-78
2023/07/13 07:52:09;;;;;;;76.45;69.82;;;;;;;31.33;100.00;100954.25;5049092;28;20049;-78
2023/07/13 07:54:35;;;;;;;77.85;71.15;;;;;;;32.08;100.00;100950.41;5047137;28;20056;-79
2023/07/13 07:57:04;;;;;;;76.90;70.25;;;;;;;31.69;100.00;100948.00;5050460;28;20135;-79
2023/07/13 07:59:31;;;;;;;74.75;68.60;;;;;;;31.15;100.00;100953.66;5045931;28;20418;-79
2023/07/13 08:01:58;;;;;;;75.32;68.82;;;;;;;31.58;100.00;100951.56;5045070;28;20053;-79
2023/07/13 08:04:24;;;;;;;76.43;69.53;;;;;;;31.91;100.00;100954.22;5043383;28;20059;-79
2023/07/13 08:06:51;;;;;;;75.55;69.32;;;;;;;31.70;100.00;100952.34;5050443;28;20049;-79
2023/07/13 08:09:18;;;;;;;73.72;67.53;;;;;;;32.24;100.00;100958.75;5049277;28;20056;-78
2023/07/13 08:11:45;;;;;;;82.38;75.95;;;;;;;31.12;100.00;100948.03;5050337;28;20053;-81
2023/07/13 08:14:14;;;;;;;86.38;79.78;;;;;;;30.58;100.00;100957.06;5050400;28;20053;-80
2023/07/13 08:16:41;;;;;;;77.60;71.10;;;;;;;31.82;100.00;100948.81;5050169;28;20049;-82
2023/07/13 08:19:07;;;;;;;73.38;66.93;;;;;;;30.05;100.00;100970.34;5049873;28;20048;-81
2023/07/13 08:21:35;;;;;;;77.00;70.45;;;;;;;31.16;100.00;100965.41;5049954;28;20707;-80
2023/07/13 08:24:02;;;;;;;84.93;77.57;;;;;;;30.01;100.00;100968.56;5050313;28;20077;-80
2023/07/13 08:26:31;;;;;;;78.97;72.03;;;;;;;30.92;100.00;100957.91;5047353;28;20057;-81
2023/07/13 08:28:58;;;;;;;53.25;48.25;;;;;;;30.07;100.00;100964.50;5047008;28;20041;-80
2023/07/13 08:31:26;;;;;;;52.50;47.50;;;;;;;31.83;100.00;100952.34;5044042;28;20144;-81
2023/07/13 08:33:53;;;;;;;54.40;49.33;;;;;;;32.10;100.00;100957.16;5049383;28;20045;-81
2023/07/13 08:36:20;;;;;;;53.42;48.45;;;;;;;30.82;100.00;100952.88;5049263;28;20629;-81
2023/07/13 08:38:47;;;;;;;46.58;42.47;;;;;;;30.26;100.00;100953.94;5049660;28;20052;-80
2023/07/13 08:41:23;;;;;;;50.53;45.72;;;;;;;32.43;100.00;100947.13;5042831;28;20414;-80
2023/07/13 08:43:55;;;;;;;52.95;48.33;;;;;;;33.33;100.00;100951.19;5046773;28;20417;-80
2023/07/13 08:46:24;;;;;;;;;;;;;;;31.52;100.00;100950.19;5039374;28;20053;-81
2023/07/13 08:48:57;;;;;;;50.50;45.55;;;;;;;30.91;100.00;100951.63;5037034;28;19928;-80
2023/07/13 08:51:37;;;;;;;60.28;54.58;;;;;;;31.93;100.00;100949.97;5049802;28;20060;-81
2023/07/13 08:54:11;;;;;;;57.53;51.92;;;;;;;29.78;100.00;100948.91;5048935;28;20424;-80
2023/07/13 08:56:38;;;;;;;64.72;58.42;;;;;;;32.04;100.00;100942.06;5049408;28;20045;-80
2023/07/13 08:59:13;;;;;;;59.50;54.20;;;;;;;30.21;100.00;100940.44;5047776;28;20055;-80
2023/07/13 09:01:54;;;;;;;53.55;48.58;;;;;;;29.81;100.00;100938.09;5042887;28;20056;-81
2023/07/13 09:04:30;;;;;;;34.28;31.55;;;;;;;29.30;100.00;100933.63;5042178;28;20041;-80
2023/07/13 09:07:06;;;;;;;35.65;32.85;;;;;;;29.78;100.00;100927.00;5041726;28;20467;-79
2023/07/13 09:09:44;;;;;;;35.60;32.65;;;;;;;32.23;100.00;100921.44;5049623;28;20051;-80
2023/07/13 09:12:18;;;;;;;34.90;32.03;;;;;;;31.65;100.00;100921.59;5048996;28;20049;-80
2023/07/13 09:14:48;;;;;;;35.42;32.53;;;;;;;31.59;100.00;100915.56;5048955;28;20084;-80
2023/07/13 09:17:19;;;;;;;37.65;34.75;;;;;;;32.22;100.00;100917.84;5045689;28;20056;-80
2023/07/13 09:19:55;;;;;;;36.83;33.53;;;;;;;31.94;100.00;100917.81;5036580;28;20045;-80
2023/07/13 09:22:27;;;;;;;37.25;34.35;;;;;;;33.37;100.00;100905.25;5041613;28;20071;-81
2023/07/13 09:25:01;;;;;;;41.85;38.55;;;;;;;32.80;100.00;100918.34;5034528;28;20084;-80
2023/07/13 09:27:32;;;;;;;39.63;36.33;;;;;;;33.55;100.00;100915.94;5037291;28;20501;-81
2023/07/13 09:30:22;;;;;;;36.10;33.22;;;;;;;33.77;100.00;100912.53;5040787;28;20037;-80
2023/07/13 09:32:52;;;;;;;40.25;37.28;;;;;;;32.98;100.00;100927.13;5034920;28;21073;-80
2023/07/13 09:35:27;;;;;;;36.20;33.45;;;;;;;31.43;100.00;100929.13;5039776;28;20041;-81
2023/07/13 09:37:59;;;;;;;36.20;33.40;;;;;;;30.97;100.00;100933.03;5043932;28;20052;-78
2023/07/13 09:40:34;;;;;;;35.03;32.33;;;;;;;31.66;100.00;100934.19;5039836;28;20045;-80
2023/07/13 09:43:04;;;;;;;34.60;31.67;;;;;;;33.25;100.00;100932.88;5041712;28;20428;-79
2023/07/13 09:45:38;;;;;;;37.03;34.53;;;;;;;32.49;100.00;100937.50;5042604;28;20053;-78
2023/07/13 09:48:07;;;;;;;33.28;30.98;;;;;;;32.88;100.00;100924.84;5037499;28;20053;-78
2023/07/13 09:50:36;;;;;;;35.85;33.03;;;;;;;33.48;100.00;100936.59;5034427;28;20045;-79
2023/07/13 09:53:03;;;;;;;33.00;30.40;;;;;;;34.31;100.00;100931.03;5044960;28;20056;-78
2023/07/13 09:55:36;;;;;;;36.20;33.50;;;;;;;34.40;100.00;100941.84;5037701;28;20045;-80
2023/07/13 09:58:12;;;;;;;36.60;33.70;;;;;;;35.08;100.00;100930.19;5038504;28;20053;-81
2023/07/13 10:00:39;;;;;;;34.90;31.80;;;;;;;33.26;100.00;100929.78;5044026;28;20046;-79
2023/07/13 10:03:17;;;;;;;35.00;32.20;;;;;;;34.06;100.00;100924.22;5036225;28;20130;-80
2023/07/13 10:05:47;;;;;;;34.67;31.55;;;;;;;33.35;100.00;100920.56;5035185;28;20524;-78
2023/07/13 10:08:23;;;;;;;38.13;34.67;;;;;;;30.71;100.00;100922.28;5034538;28;20042;-78
2023/07/13 10:10:55;;;;;;;35.10;31.80;;;;;;;33.26;100.00;100920.72;5036393;28;20036;-81
2023/07/13 10:13:32;;;;;;;38.33;33.13;;;;;;;33.91;100.00;100917.56;5039980;28;20492;-81
2023/07/13 10:16:00;;;;;;;26.52;24.20;;;;;;;35.30;100.00;100917.53;5050490;28;20558;-79
2023/07/13 10:18:29;;;;;;;26.83;24.33;;;;;;;34.76;100.00;100923.28;5044178;28;20500;-79
2023/07/13 10:21:13;;;;;;;28.05;25.60;;;;;;;33.85;100.00;100919.78;5042222;28;20099;-79
2023/07/13 10:23:41;;;;;;;29.10;26.73;;;;;;;34.34;100.00;100919.28;5050860;28;20076;-79
2023/07/13 10:26:16;;;;;;;30.52;27.75;;;;;;;35.15;100.00;100920.44;5037128;28;20045;-78
2023/07/13 10:28:47;;;;;;;33.08;30.30;;;;;;;34.04;100.00;100921.00;5049491;28;20048;-78
2023/07/13 10:31:17;;;;;;;34.45;31.95;;;;;;;34.38;100.00;100922.13;5047184;28;20045;-81
2023/07/13 10:33:44;;;;;;;35.25;32.55;;;;;;;34.57;100.00;100924.09;5050669;28;20111;-81
2023/07/13 10:36:23;;;;;;;35.60;32.63;;;;;;;35.71;100.00;100914.25;5050323;28;20052;-82
2023/07/13 10:38:52;;;;;;;35.88;32.88;;;;;;;36.10;100.00;100909.31;5050227;28;20057;-79
2023/07/13 10:41:23;;;;;;;34.10;31.40;;;;;;;35.91;96.66;100918.47;5045063;28;20053;-80
2023/07/13 10:43:54;;;;;;;34.22;31.05;;;;;;;35.55;100.00;100903.34;5043343;28;20132;-79
2023/07/13 10:46:26;;;;;;;32.97;30.17;;;;;;;34.86;100.00;100903.38;5048640;28;20139;-79
2023/07/13 10:48:58;;;;;;;34.88;32.25;;;;;;;34.17;100.00;100903.19;5045014;28;20044;-78
2023/07/13 10:51:28;;;;;;;33.33;30.38;;;;;;;33.32;100.00;100891.78;5049138;28;20041;-79
2023/07/13 10:54:22;;;;;;;34.47;31.70;;;;;;;35.15;100.00;100890.88;5047372;28;20037;-79
2023/07/13 10:56:52;;;;;;;36.45;33.50;;;;;;;34.98;100.00;100877.53;5051065;28;20067;-79
2023/07/13 10:59:26;;;;;;;31.00;28.33;;;;;;;35.17;98.94;100869.22;5050409;28;20106;-79
2023/07/13 11:01:59;;;;;;;34.47;31.35;;;;;;;35.93;92.67;100863.66;5047628;28;20420;-78
2023/07/13 11:04:29;;;;;;;36.85;33.50;;;;;;;37.46;68.93;100863.63;5043753;28;20041;-80
2023/07/13 11:07:10;;;;;;;56.42;52.20;;;;;;;36.68;75.63;100858.22;5045999;28;20048;-78
2023/07/13 11:09:40;;;;;;;66.75;61.15;;;;;;;36.87;70.75;100862.72;5037016;28;20053;-83